sensor_id;sensor_type;location;lat;lon;timestamp;temperature;humidity
14699;DHT22;7439;50.804;4.602;2023-05-07T00:01:58;12.30;1.00
14699;DHT22;7439;50.804;4.602;2023-05-07T00:04:27;12.30;1.00
14699;DHT22;7439;50.804;4.602;2023-05-07T00:06:54;12.30;50.30
14699;DHT22;7439;50.804;4.602;2023-05-07T00:09:24;12.20;1.00
14699;DHT22;7439;50.804;4.602;2023-05-07T00:11:51;12.20;1.00
14699;DHT22;7439;50.804;4.602;2023-05-07T00:14:18;12.20;99.90
14699;DHT22;7439;50.804;4.602;2023-05-07T00:16:47;12.20;99.90
14699;DHT22;7439;50.804;4.602;2023-05-07T00:19:14;12.30;99.90
14699;DHT22;7439;50.804;4.602;2023-05-07T00:21:43;12.40;99.90
14699;DHT22;7439;50.804;4.602;2023-05-07T00:24:10;12.30;99.90
14699;DHT22;7439;50.804;4.602;2023-05-07T00:26:37;12.30;97.00
14699;DHT22;7439;50.804;4.602;2023-05-07T00:29:04;12.30;99.90
14699;DHT22;7439;50.804;4.602;2023-05-07T00:31:37;12.40;99.90
14699;DHT22;7439;50.804;4.602;2023-05-07T00:34:07;12.30;99.90
14699;DHT22;7439;50.804;4.602;2023-05-07T00:36:34;12.40;99.90
14699;DHT22;7439;50.804;4.602;2023-05-07T00:39:04;12.40;99.90
14699;DHT22;7439;50.804;4.602;2023-05-07T00:41:32;12.40;99.90
14699;DHT22;7439;50.804;4.602;2023-05-07T00:43:59;12.40;99.90
14699;DHT22;7439;50.804;4.602;2023-05-07T00:46:28;12.40;99.90
14699;DHT22;7439;50.804;4.602;2023-05-07T00:48:58;12.40;99.90
14699;DHT22;7439;50.804;4.602;2023-05-07T00:51:26;12.50;99.90
14699;DHT22;7439;50.804;4.602;2023-05-07T00:53:54;12.50;99.90
14699;DHT22;7439;50.804;4.602;2023-05-07T00:56:23;12.50;39.80
14699;DHT22;7439;50.804;4.602;2023-05-07T00:58:51;12.30;99.90
14699;DHT22;7439;50.804;4.602;2023-05-07T01:01:18;12.40;99.90
14699;DHT22;7439;50.804;4.602;2023-05-07T01:03:45;12.30;99.90
14699;DHT22;7439;50.804;4.602;2023-05-07T01:06:13;12.40;1.00
14699;DHT22;7439;50.804;4.602;2023-05-07T01:08:43;12.40;99.90
14699;DHT22;7439;50.804;4.602;2023-05-07T01:11:11;12.40;1.00
14699;DHT22;7439;50.804;4.602;2023-05-07T01:13:40;12.30;1.00
14699;DHT22;7439;50.804;4.602;2023-05-07T01:16:09;12.40;1.00
14699;DHT22;7439;50.804;4.602;2023-05-07T01:18:37;12.40;1.00
14699;DHT22;7439;50.804;4.602;2023-05-07T01:21:04;12.40;1.00
14699;DHT22;7439;50.804;4.602;2023-05-07T01:23:33;12.40;99.90
14699;DHT22;7439;50.804;4.602;2023-05-07T01:26:03;12.40;99.90
14699;DHT22;7439;50.804;4.602;2023-05-07T01:28:30;12.30;1.00
14699;DHT22;7439;50.804;4.602;2023-05-07T01:31:01;12.30;1.00
14699;DHT22;7439;50.804;4.602;2023-05-07T01:33:31;12.40;1.00
14699;DHT22;7439;50.804;4.602;2023-05-07T01:35:59;12.40;1.00
14699;DHT22;7439;50.804;4.602;2023-05-07T01:38:29;12.30;1.00
14699;DHT22;7439;50.804;4.602;2023-05-07T01:40:58;12.30;1.00
14699;DHT22;7439;50.804;4.602;2023-05-07T01:43:25;12.40;1.00
14699;DHT22;7439;50.804;4.602;2023-05-07T01:45:53;12.40;1.00
14699;DHT22;7439;50.804;4.602;2023-05-07T01:48:20;12.50;1.00
14699;DHT22;7439;50.804;4.602;2023-05-07T01:50:48;12.50;1.00
14699;DHT22;7439;50.804;4.602;2023-05-07T01:53:15;12.40;1.00
14699;DHT22;7439;50.804;4.602;2023-05-07T01:55:43;12.30;1.00
14699;DHT22;7439;50.804;4.602;2023-05-07T01:58:12;12.30;1.00
14699;DHT22;7439;50.804;4.602;2023-05-07T02:00:39;12.20;1.00
14699;DHT22;7439;50.804;4.602;2023-05-07T02:03:07;12.30;6.40
14699;DHT22;7439;50.804;4.602;2023-05-07T02:05:35;12.30;39.10
14699;DHT22;7439;50.804;4.602;2023-05-07T02:08:02;12.40;64.20
14699;DHT22;7439;50.804;4.602;2023-05-07T02:10:29;12.40;24.50
14699;DHT22;7439;50.804;4.602;2023-05-07T02:12:56;12.40;94.00
14699;DHT22;7439;50.804;4.602;2023-05-07T02:15:25;12.40;1.00
14699;DHT22;7439;50.804;4.602;2023-05-07T02:17:59;12.50;1.00
14699;DHT22;7439;50.804;4.602;2023-05-07T02:20:26;12.50;42.80
14699;DHT22;7439;50.804;4.602;2023-05-07T02:22:53;12.60;1.00
14699;DHT22;7439;50.804;4.602;2023-05-07T02:25:21;12.50;1.00
14699;DHT22;7439;50.804;4.602;2023-05-07T02:27:48;12.40;1.00
14699;DHT22;7439;50.804;4.602;2023-05-07T02:30:15;12.40;1.00
14699;DHT22;7439;50.804;4.602;2023-05-07T02:32:44;12.40;1.00
14699;DHT22;7439;50.804;4.602;2023-05-07T02:35:11;12.40;1.00
14699;DHT22;7439;50.804;4.602;2023-05-07T02:37:38;12.40;99.90
14699;DHT22;7439;50.804;4.602;2023-05-07T02:40:06;12.40;99.90
14699;DHT22;7439;50.804;4.602;2023-05-07T02:42:33;12.40;99.90
14699;DHT22;7439;50.804;4.602;2023-05-07T02:45:00;12.40;7.30
14699;DHT22;7439;50.804;4.602;2023-05-07T02:47:28;12.30;1.00
14699;DHT22;7439;50.804;4.602;2023-05-07T02:49:56;12.30;1.00
14699;DHT22;7439;50.804;4.602;2023-05-07T02:52:23;12.20;1.00
14699;DHT22;7439;50.804;4.602;2023-05-07T02:54:50;12.10;99.90
14699;DHT22;7439;50.804;4.602;2023-05-07T02:57:17;12.00;99.90
14699;DHT22;7439;50.804;4.602;2023-05-07T02:59:45;12.00;99.90
14699;DHT22;7439;50.804;4.602;2023-05-07T03:02:12;12.10;1.00
14699;DHT22;7439;50.804;4.602;2023-05-07T03:04:39;12.00;1.00
14699;DHT22;7439;50.804;4.602;2023-05-07T03:07:08;12.00;1.00
14699;DHT22;7439;50.804;4.602;2023-05-07T03:09:36;12.00;1.00
14699;DHT22;7439;50.804;4.602;2023-05-07T03:12:03;12.00;1.00
14699;DHT22;7439;50.804;4.602;2023-05-07T03:14:30;12.10;1.00
14699;DHT22;7439;50.804;4.602;2023-05-07T03:16:57;12.00;1.00
14699;DHT22;7439;50.804;4.602;2023-05-07T03:19:24;12.10;60.80
14699;DHT22;7439;50.804;4.602;2023-05-07T03:21:51;12.10;99.90
14699;DHT22;7439;50.804;4.602;2023-05-07T03:24:20;12.10;99.90
14699;DHT22;7439;50.804;4.602;2023-05-07T03:26:47;12.10;99.90
14699;DHT22;7439;50.804;4.602;2023-05-07T03:29:14;12.10;99.90
14699;DHT22;7439;50.804;4.602;2023-05-07T03:31:41;12.20;99.90
14699;DHT22;7439;50.804;4.602;2023-05-07T03:34:09;12.10;99.90
14699;DHT22;7439;50.804;4.602;2023-05-07T03:36:36;12.10;99.90
14699;DHT22;7439;50.804;4.602;2023-05-07T03:39:03;12.10;99.90
14699;DHT22;7439;50.804;4.602;2023-05-07T03:41:32;12.10;99.90
14699;DHT22;7439;50.804;4.602;2023-05-07T03:43:59;12.30;1.00
14699;DHT22;7439;50.804;4.602;2023-05-07T03:46:26;12.30;99.90
14699;DHT22;7439;50.804;4.602;2023-05-07T03:48:53;12.30;99.90
14699;DHT22;7439;50.804;4.602;2023-05-07T03:51:21;12.20;99.90
14699;DHT22;7439;50.804;4.602;2023-05-07T03:53:48;12.20;99.90
14699;DHT22;7439;50.804;4.602;2023-05-07T03:56:15;12.20;99.90
14699;DHT22;7439;50.804;4.602;2023-05-07T03:58:44;12.20;99.90
14699;DHT22;7439;50.804;4.602;2023-05-07T04:01:11;12.10;99.90
14699;DHT22;7439;50.804;4.602;2023-05-07T04:03:41;12.20;99.90
14699;DHT22;7439;50.804;4.602;2023-05-07T04:06:08;12.30;99.90
14699;DHT22;7439;50.804;4.602;2023-05-07T04:08:36;12.20;99.90
14699;DHT22;7439;50.804;4.602;2023-05-07T04:11:03;12.30;99.90
14699;DHT22;7439;50.804;4.602;2023-05-07T04:13:30;12.20;99.90
14699;DHT22;7439;50.804;4.602;2023-05-07T04:16:00;12.20;99.90
14699;DHT22;7439;50.804;4.602;2023-05-07T04:18:27;12.20;99.90
14699;DHT22;7439;50.804;4.602;2023-05-07T04:20:55;12.30;1.00
14699;DHT22;7439;50.804;4.602;2023-05-07T04:23:22;12.30;1.00
14699;DHT22;7439;50.804;4.602;2023-05-07T04:25:50;12.20;99.90
14699;DHT22;7439;50.804;4.602;2023-05-07T04:28:17;12.20;99.90
14699;DHT22;7439;50.804;4.602;2023-05-07T04:30:45;12.20;99.90
14699;DHT22;7439;50.804;4.602;2023-05-07T04:33:14;12.20;99.90
14699;DHT22;7439;50.804;4.602;2023-05-07T04:35:42;12.20;99.90
14699;DHT22;7439;50.804;4.602;2023-05-07T04:38:09;12.20;99.90
14699;DHT22;7439;50.804;4.602;2023-05-07T04:40:37;12.30;1.00
14699;DHT22;7439;50.804;4.602;2023-05-07T04:43:04;12.30;99.90
14699;DHT22;7439;50.804;4.602;2023-05-07T04:45:33;12.30;99.90
14699;DHT22;7439;50.804;4.602;2023-05-07T04:48:00;12.40;99.90
14699;DHT22;7439;50.804;4.602;2023-05-07T04:50:29;12.40;99.90
14699;DHT22;7439;50.804;4.602;2023-05-07T04:52:56;12.30;99.90
14699;DHT22;7439;50.804;4.602;2023-05-07T04:55:23;12.30;99.90
14699;DHT22;7439;50.804;4.602;2023-05-07T04:57:50;12.40;99.90
14699;DHT22;7439;50.804;4.602;2023-05-07T05:00:19;12.50;99.90
14699;DHT22;7439;50.804;4.602;2023-05-07T05:02:46;12.50;99.90
14699;DHT22;7439;50.804;4.602;2023-05-07T05:05:13;12.60;99.90
14699;DHT22;7439;50.804;4.602;2023-05-07T05:07:42;12.60;99.90
14699;DHT22;7439;50.804;4.602;2023-05-07T05:10:09;12.70;99.90
14699;DHT22;7439;50.804;4.602;2023-05-07T05:12:36;12.80;99.90
14699;DHT22;7439;50.804;4.602;2023-05-07T05:15:04;12.80;99.90
14699;DHT22;7439;50.804;4.602;2023-05-07T05:17:32;12.90;99.90
14699;DHT22;7439;50.804;4.602;2023-05-07T05:20:00;12.80;1.00
14699;DHT22;7439;50.804;4.602;2023-05-07T05:22:27;12.80;1.00
14699;DHT22;7439;50.804;4.602;2023-05-07T05:24:58;12.90;1.00
14699;DHT22;7439;50.804;4.602;2023-05-07T05:27:25;13.00;1.00
14699;DHT22;7439;50.804;4.602;2023-05-07T05:29:53;13.00;99.90
14699;DHT22;7439;50.804;4.602;2023-05-07T05:32:20;13.00;99.90
14699;DHT22;7439;50.804;4.602;2023-05-07T05:34:48;13.10;99.90
14699;DHT22;7439;50.804;4.602;2023-05-07T05:37:15;13.20;99.90
14699;DHT22;7439;50.804;4.602;2023-05-07T05:39:42;13.20;99.90
14699;DHT22;7439;50.804;4.602;2023-05-07T05:42:11;13.30;99.90
14699;DHT22;7439;50.804;4.602;2023-05-07T05:44:38;13.30;99.90
14699;DHT22;7439;50.804;4.602;2023-05-07T05:47:05;13.40;99.90
14699;DHT22;7439;50.804;4.602;2023-05-07T05:49:32;13.40;82.60
14699;DHT22;7439;50.804;4.602;2023-05-07T05:52:00;13.40;1.00
14699;DHT22;7439;50.804;4.602;2023-05-07T05:54:27;13.40;1.00
14699;DHT22;7439;50.804;4.602;2023-05-07T05:56:54;13.40;1.00
14699;DHT22;7439;50.804;4.602;2023-05-07T05:59:22;13.50;1.00
14699;DHT22;7439;50.804;4.602;2023-05-07T06:01:50;13.50;1.00
14699;DHT22;7439;50.804;4.602;2023-05-07T06:04:17;13.50;1.00
14699;DHT22;7439;50.804;4.602;2023-05-07T06:06:48;13.60;1.00
14699;DHT22;7439;50.804;4.602;2023-05-07T06:09:15;13.60;1.00
14699;DHT22;7439;50.804;4.602;2023-05-07T06:11:42;13.60;1.00
14699;DHT22;7439;50.804;4.602;2023-05-07T06:14:09;13.80;1.00
14699;DHT22;7439;50.804;4.602;2023-05-07T06:16:38;13.70;99.90
14699;DHT22;7439;50.804;4.602;2023-05-07T06:19:05;13.70;99.90
14699;DHT22;7439;50.804;4.602;2023-05-07T06:21:32;13.70;99.90
14699;DHT22;7439;50.804;4.602;2023-05-07T06:23:59;13.80;1.00
14699;DHT22;7439;50.804;4.602;2023-05-07T06:26:26;13.80;99.90
14699;DHT22;7439;50.804;4.602;2023-05-07T06:28:53;13.80;99.90
14699;DHT22;7439;50.804;4.602;2023-05-07T06:31:20;13.80;1.00
14699;DHT22;7439;50.804;4.602;2023-05-07T06:33:49;13.90;1.00
14699;DHT22;7439;50.804;4.602;2023-05-07T06:36:16;13.90;2.60
14699;DHT22;7439;50.804;4.602;2023-05-07T06:38:43;14.00;59.10
14699;DHT22;7439;50.804;4.602;2023-05-07T06:41:13;14.00;49.50
14699;DHT22;7439;50.804;4.602;2023-05-07T06:43:40;14.10;99.90
14699;DHT22;7439;50.804;4.602;2023-05-07T06:46:07;14.10;56.30
14699;DHT22;7439;50.804;4.602;2023-05-07T06:48:35;14.30;1.00
14699;DHT22;7439;50.804;4.602;2023-05-07T06:51:03;14.30;1.00
14699;DHT22;7439;50.804;4.602;2023-05-07T06:53:31;14.40;1.00
14699;DHT22;7439;50.804;4.602;2023-05-07T06:55:58;14.60;99.90
14699;DHT22;7439;50.804;4.602;2023-05-07T06:58:25;14.70;99.90
14699;DHT22;7439;50.804;4.602;2023-05-07T07:00:55;14.90;59.70
14699;DHT22;7439;50.804;4.602;2023-05-07T07:03:22;14.90;1.00
14699;DHT22;7439;50.804;4.602;2023-05-07T07:05:51;14.90;1.00
14699;DHT22;7439;50.804;4.602;2023-05-07T07:08:20;15.00;1.00
14699;DHT22;7439;50.804;4.602;2023-05-07T07:10:47;15.00;99.90
14699;DHT22;7439;50.804;4.602;2023-05-07T07:13:15;15.10;1.00
14699;DHT22;7439;50.804;4.602;2023-05-07T07:15:43;15.20;1.00
14699;DHT22;7439;50.804;4.602;2023-05-07T07:18:10;15.30;99.90
14699;DHT22;7439;50.804;4.602;2023-05-07T07:20:37;15.40;99.90
14699;DHT22;7439;50.804;4.602;2023-05-07T07:23:05;15.50;99.90
14699;DHT22;7439;50.804;4.602;2023-05-07T07:25:33;15.60;99.90
14699;DHT22;7439;50.804;4.602;2023-05-07T07:28:00;15.60;1.00
14699;DHT22;7439;50.804;4.602;2023-05-07T07:30:27;15.60;1.00
14699;DHT22;7439;50.804;4.602;2023-05-07T07:32:55;15.60;1.00
14699;DHT22;7439;50.804;4.602;2023-05-07T07:35:27;15.60;1.00
14699;DHT22;7439;50.804;4.602;2023-05-07T07:37:54;15.60;1.00
14699;DHT22;7439;50.804;4.602;2023-05-07T07:40:21;15.60;1.00
14699;DHT22;7439;50.804;4.602;2023-05-07T07:42:50;15.50;1.00
14699;DHT22;7439;50.804;4.602;2023-05-07T07:45:17;15.50;1.00
14699;DHT22;7439;50.804;4.602;2023-05-07T07:47:44;15.50;1.00
14699;DHT22;7439;50.804;4.602;2023-05-07T07:50:12;15.40;1.00
14699;DHT22;7439;50.804;4.602;2023-05-07T07:52:39;15.30;1.00
14699;DHT22;7439;50.804;4.602;2023-05-07T07:55:07;15.20;1.00
14699;DHT22;7439;50.804;4.602;2023-05-07T07:57:34;15.20;1.00
14699;DHT22;7439;50.804;4.602;2023-05-07T08:00:04;15.20;1.00
14699;DHT22;7439;50.804;4.602;2023-05-07T08:02:32;15.20;99.90
14699;DHT22;7439;50.804;4.602;2023-05-07T08:05:00;15.20;99.90
14699;DHT22;7439;50.804;4.602;2023-05-07T08:07:27;15.20;99.90
14699;DHT22;7439;50.804;4.602;2023-05-07T08:09:54;15.30;99.90
14699;DHT22;7439;50.804;4.602;2023-05-07T08:12:21;15.40;99.90
14699;DHT22;7439;50.804;4.602;2023-05-07T08:14:48;15.40;99.90
14699;DHT22;7439;50.804;4.602;2023-05-07T08:17:16;15.50;99.90
14699;DHT22;7439;50.804;4.602;2023-05-07T08:19:43;15.50;99.90
14699;DHT22;7439;50.804;4.602;2023-05-07T08:22:11;15.50;99.90
14699;DHT22;7439;50.804;4.602;2023-05-07T08:24:38;15.50;99.90
14699;DHT22;7439;50.804;4.602;2023-05-07T08:27:05;15.50;99.90
14699;DHT22;7439;50.804;4.602;2023-05-07T08:29:32;15.50;99.90
14699;DHT22;7439;50.804;4.602;2023-05-07T08:31:59;15.60;1.00
14699;DHT22;7439;50.804;4.602;2023-05-07T08:34:28;15.60;99.90
14699;DHT22;7439;50.804;4.602;2023-05-07T08:36:55;15.60;99.90
14699;DHT22;7439;50.804;4.602;2023-05-07T08:39:22;15.50;99.90
14699;DHT22;7439;50.804;4.602;2023-05-07T08:41:52;15.50;99.90
14699;DHT22;7439;50.804;4.602;2023-05-07T08:44:22;15.40;99.90
14699;DHT22;7439;50.804;4.602;2023-05-07T08:46:53;15.50;1.00
14699;DHT22;7439;50.804;4.602;2023-05-07T08:49:22;15.50;1.00
14699;DHT22;7439;50.804;4.602;2023-05-07T08:51:52;15.50;1.00
14699;DHT22;7439;50.804;4.602;2023-05-07T08:54:20;15.50;1.00
14699;DHT22;7439;50.804;4.602;2023-05-07T08:56:48;15.50;26.30
14699;DHT22;7439;50.804;4.602;2023-05-07T08:59:15;15.50;1.00
14699;DHT22;7439;50.804;4.602;2023-05-07T09:01:42;15.50;1.00
14699;DHT22;7439;50.804;4.602;2023-05-07T09:04:10;15.50;1.00
14699;DHT22;7439;50.804;4.602;2023-05-07T09:06:38;15.70;1.00
14699;DHT22;7439;50.804;4.602;2023-05-07T09:09:09;15.70;1.00
14699;DHT22;7439;50.804;4.602;2023-05-07T09:11:36;15.70;1.00
14699;DHT22;7439;50.804;4.602;2023-05-07T09:14:03;15.70;1.00
14699;DHT22;7439;50.804;4.602;2023-05-07T09:16:30;15.70;1.00
14699;DHT22;7439;50.804;4.602;2023-05-07T09:18:58;15.80;1.00
14699;DHT22;7439;50.804;4.602;2023-05-07T09:21:26;15.90;1.00
14699;DHT22;7439;50.804;4.602;2023-05-07T09:23:54;15.90;1.00
14699;DHT22;7439;50.804;4.602;2023-05-07T09:26:24;15.90;1.00
14699;DHT22;7439;50.804;4.602;2023-05-07T09:28:51;16.00;1.00
14699;DHT22;7439;50.804;4.602;2023-05-07T09:31:19;16.00;1.00
14699;DHT22;7439;50.804;4.602;2023-05-07T09:33:46;16.00;1.00
14699;DHT22;7439;50.804;4.602;2023-05-07T09:36:14;16.10;1.00
14699;DHT22;7439;50.804;4.602;2023-05-07T09:38:41;16.10;1.00
14699;DHT22;7439;50.804;4.602;2023-05-07T09:41:10;16.10;99.90
14699;DHT22;7439;50.804;4.602;2023-05-07T09:43:40;16.00;99.90
14699;DHT22;7439;50.804;4.602;2023-05-07T09:46:09;16.00;99.90
14699;DHT22;7439;50.804;4.602;2023-05-07T09:48:39;16.00;1.00
14699;DHT22;7439;50.804;4.602;2023-05-07T09:51:12;15.90;1.00
14699;DHT22;7439;50.804;4.602;2023-05-07T09:53:43;15.80;55.40
14699;DHT22;7439;50.804;4.602;2023-05-07T09:56:14;15.60;1.00
14699;DHT22;7439;50.804;4.602;2023-05-07T09:58:43;15.50;99.90
14699;DHT22;7439;50.804;4.602;2023-05-07T10:01:12;15.50;1.00
14699;DHT22;7439;50.804;4.602;2023-05-07T10:03:40;15.50;99.90
14699;DHT22;7439;50.804;4.602;2023-05-07T10:06:09;15.30;99.90
14699;DHT22;7439;50.804;4.602;2023-05-07T10:08:36;15.20;99.90
14699;DHT22;7439;50.804;4.602;2023-05-07T10:11:04;15.20;99.90
14699;DHT22;7439;50.804;4.602;2023-05-07T10:13:32;15.10;91.20
14699;DHT22;7439;50.804;4.602;2023-05-07T10:16:03;15.00;99.90
14699;DHT22;7439;50.804;4.602;2023-05-07T10:18:31;15.00;99.90
14699;DHT22;7439;50.804;4.602;2023-05-07T10:21:03;15.10;1.00
14699;DHT22;7439;50.804;4.602;2023-05-07T10:23:32;15.10;99.90
14699;DHT22;7439;50.804;4.602;2023-05-07T10:26:02;15.10;99.90
14699;DHT22;7439;50.804;4.602;2023-05-07T10:28:34;15.10;1.00
14699;DHT22;7439;50.804;4.602;2023-05-07T10:31:18;15.30;99.90
14699;DHT22;7439;50.804;4.602;2023-05-07T10:33:51;15.30;99.90
14699;DHT22;7439;50.804;4.602;2023-05-07T10:36:20;15.40;1.00
14699;DHT22;7439;50.804;4.602;2023-05-07T10:38:48;15.50;1.00
14699;DHT22;7439;50.804;4.602;2023-05-07T10:41:16;15.60;1.00
14699;DHT22;7439;50.804;4.602;2023-05-07T10:43:45;15.70;99.90
14699;DHT22;7439;50.804;4.602;2023-05-07T10:46:15;15.80;99.90
14699;DHT22;7439;50.804;4.602;2023-05-07T10:49:07;15.90;99.90
14699;DHT22;7439;50.804;4.602;2023-05-07T10:51:37;16.10;1.00
14699;DHT22;7439;50.804;4.602;2023-05-07T10:54:19;16.10;19.10
14699;DHT22;7439;50.804;4.602;2023-05-07T10:56:48;16.20;33.00
14699;DHT22;7439;50.804;4.602;2023-05-07T10:59:33;16.20;1.00
14699;DHT22;7439;50.804;4.602;2023-05-07T11:02:08;16.20;1.00
14699;DHT22;7439;50.804;4.602;2023-05-07T11:04:37;16.40;1.00
14699;DHT22;7439;50.804;4.602;2023-05-07T11:07:26;16.40;1.00
14699;DHT22;7439;50.804;4.602;2023-05-07T11:10:02;16.50;42.40
14699;DHT22;7439;50.804;4.602;2023-05-07T11:12:52;16.70;1.00
14699;DHT22;7439;50.804;4.602;2023-05-07T11:15:40;16.70;1.00
14699;DHT22;7439;50.804;4.602;2023-05-07T11:18:11;16.50;99.90
14699;DHT22;7439;50.804;4.602;2023-05-07T11:20:57;16.60;99.90
14699;DHT22;7439;50.804;4.602;2023-05-07T11:23:56;16.60;1.00
14699;DHT22;7439;50.804;4.602;2023-05-07T11:26:27;16.80;1.00
14699;DHT22;7439;50.804;4.602;2023-05-07T11:28:55;16.90;99.90
14699;DHT22;7439;50.804;4.602;2023-05-07T11:31:24;16.90;1.00
14699;DHT22;7439;50.804;4.602;2023-05-07T11:33:53;17.10;1.00
14699;DHT22;7439;50.804;4.602;2023-05-07T11:36:23;17.20;99.90
14699;DHT22;7439;50.804;4.602;2023-05-07T11:38:50;17.10;99.90
14699;DHT22;7439;50.804;4.602;2023-05-07T11:41:18;17.00;1.00
14699;DHT22;7439;50.804;4.602;2023-05-07T11:43:59;17.00;1.00
14699;DHT22;7439;50.804;4.602;2023-05-07T11:46:27;17.10;99.90
14699;DHT22;7439;50.804;4.602;2023-05-07T11:48:56;17.30;99.90
14699;DHT22;7439;50.804;4.602;2023-05-07T11:51:25;17.30;98.20
14699;DHT22;7439;50.804;4.602;2023-05-07T11:53:53;17.30;1.00
14699;DHT22;7439;50.804;4.602;2023-05-07T11:56:20;17.40;2.70
14699;DHT22;7439;50.804;4.602;2023-05-07T11:58:50;17.70;1.00
14699;DHT22;7439;50.804;4.602;2023-05-07T12:01:18;17.80;1.00
14699;DHT22;7439;50.804;4.602;2023-05-07T12:03:45;17.80;1.00
14699;DHT22;7439;50.804;4.602;2023-05-07T12:06:16;17.70;1.00
14699;DHT22;7439;50.804;4.602;2023-05-07T12:08:44;17.60;1.00
14699;DHT22;7439;50.804;4.602;2023-05-07T12:11:14;17.50;1.00
14699;DHT22;7439;50.804;4.602;2023-05-07T12:13:43;17.40;1.00
14699;DHT22;7439;50.804;4.602;2023-05-07T12:16:11;17.50;1.00
14699;DHT22;7439;50.804;4.602;2023-05-07T12:18:38;17.50;1.00
14699;DHT22;7439;50.804;4.602;2023-05-07T12:21:06;17.50;1.00
14699;DHT22;7439;50.804;4.602;2023-05-07T12:23:36;17.50;1.00
14699;DHT22;7439;50.804;4.602;2023-05-07T12:26:03;17.50;1.00
14699;DHT22;7439;50.804;4.602;2023-05-07T12:28:32;17.50;1.00
14699;DHT22;7439;50.804;4.602;2023-05-07T12:31:02;17.60;1.00
14699;DHT22;7439;50.804;4.602;2023-05-07T12:33:31;17.50;1.00
14699;DHT22;7439;50.804;4.602;2023-05-07T12:36:00;17.50;1.00
14699;DHT22;7439;50.804;4.602;2023-05-07T12:38:36;17.50;99.90
14699;DHT22;7439;50.804;4.602;2023-05-07T12:41:04;17.60;1.00
14699;DHT22;7439;50.804;4.602;2023-05-07T12:43:31;17.60;1.00
14699;DHT22;7439;50.804;4.602;2023-05-07T12:46:01;17.50;99.90
14699;DHT22;7439;50.804;4.602;2023-05-07T12:48:29;17.50;99.90
14699;DHT22;7439;50.804;4.602;2023-05-07T12:51:00;17.70;99.90
14699;DHT22;7439;50.804;4.602;2023-05-07T12:53:28;17.70;99.90
14699;DHT22;7439;50.804;4.602;2023-05-07T12:55:58;17.70;99.90
14699;DHT22;7439;50.804;4.602;2023-05-07T12:58:27;17.70;99.90
14699;DHT22;7439;50.804;4.602;2023-05-07T13:00:56;17.70;99.90
14699;DHT22;7439;50.804;4.602;2023-05-07T13:03:28;17.80;99.90
14699;DHT22;7439;50.804;4.602;2023-05-07T13:05:57;17.70;99.90
14699;DHT22;7439;50.804;4.602;2023-05-07T13:08:29;17.70;16.60
14699;DHT22;7439;50.804;4.602;2023-05-07T13:11:00;17.80;99.90
14699;DHT22;7439;50.804;4.602;2023-05-07T13:13:29;17.80;99.90
14699;DHT22;7439;50.804;4.602;2023-05-07T13:15:56;17.90;99.90
14699;DHT22;7439;50.804;4.602;2023-05-07T13:18:25;18.00;45.60
14699;DHT22;7439;50.804;4.602;2023-05-07T13:20:52;17.90;1.00
14699;DHT22;7439;50.804;4.602;2023-05-07T13:23:20;17.70;1.00
14699;DHT22;7439;50.804;4.602;2023-05-07T13:25:49;17.70;1.00
14699;DHT22;7439;50.804;4.602;2023-05-07T13:28:17;17.70;1.00
14699;DHT22;7439;50.804;4.602;2023-05-07T13:30:46;17.60;1.00
14699;DHT22;7439;50.804;4.602;2023-05-07T13:33:13;17.60;1.00
14699;DHT22;7439;50.804;4.602;2023-05-07T13:35:41;17.50;1.00
14699;DHT22;7439;50.804;4.602;2023-05-07T13:38:08;17.40;17.20
14699;DHT22;7439;50.804;4.602;2023-05-07T13:40:35;17.40;99.90
14699;DHT22;7439;50.804;4.602;2023-05-07T13:43:02;17.50;99.90
14699;DHT22;7439;50.804;4.602;2023-05-07T13:45:31;17.40;99.90
14699;DHT22;7439;50.804;4.602;2023-05-07T13:47:58;17.40;99.90
14699;DHT22;7439;50.804;4.602;2023-05-07T13:50:27;17.50;99.90
14699;DHT22;7439;50.804;4.602;2023-05-07T13:52:55;17.40;99.90
14699;DHT22;7439;50.804;4.602;2023-05-07T13:55:23;17.50;99.90
14699;DHT22;7439;50.804;4.602;2023-05-07T13:57:55;17.40;99.90
14699;DHT22;7439;50.804;4.602;2023-05-07T14:00:23;17.50;99.90
14699;DHT22;7439;50.804;4.602;2023-05-07T14:02:52;17.50;99.90
14699;DHT22;7439;50.804;4.602;2023-05-07T14:05:20;17.70;1.00
14699;DHT22;7439;50.804;4.602;2023-05-07T14:07:49;17.70;99.90
14699;DHT22;7439;50.804;4.602;2023-05-07T14:10:18;17.70;99.90
14699;DHT22;7439;50.804;4.602;2023-05-07T14:12:46;17.50;1.00
14699;DHT22;7439;50.804;4.602;2023-05-07T14:25:55;17.20;1.00
14699;DHT22;7439;50.804;4.602;2023-05-07T14:28:23;17.30;99.90
14699;DHT22;7439;50.804;4.602;2023-05-07T14:30:50;17.30;99.90
14699;DHT22;7439;50.804;4.602;2023-05-07T14:33:18;17.30;99.90
14699;DHT22;7439;50.804;4.602;2023-05-07T14:35:45;17.30;99.90
14699;DHT22;7439;50.804;4.602;2023-05-07T14:38:14;17.40;99.90
14699;DHT22;7439;50.804;4.602;2023-05-07T14:40:42;17.40;1.00
14699;DHT22;7439;50.804;4.602;2023-05-07T14:43:10;17.40;1.00
14699;DHT22;7439;50.804;4.602;2023-05-07T14:45:39;17.40;1.00
14699;DHT22;7439;50.804;4.602;2023-05-07T14:48:07;17.50;1.00
14699;DHT22;7439;50.804;4.602;2023-05-07T14:50:35;17.50;1.00
14699;DHT22;7439;50.804;4.602;2023-05-07T14:53:02;17.40;1.00
14699;DHT22;7439;50.804;4.602;2023-05-07T14:55:29;17.20;99.90
14699;DHT22;7439;50.804;4.602;2023-05-07T15:05:27;17.20;21.50
14699;DHT22;7439;50.804;4.602;2023-05-07T15:07:54;17.10;99.90
14699;DHT22;7439;50.804;4.602;2023-05-07T15:10:21;17.10;99.90
14699;DHT22;7439;50.804;4.602;2023-05-07T15:12:49;17.10;99.90
14699;DHT22;7439;50.804;4.602;2023-05-07T15:15:16;17.30;1.00
14699;DHT22;7439;50.804;4.602;2023-05-07T15:17:43;17.40;1.00
14699;DHT22;7439;50.804;4.602;2023-05-07T15:20:11;17.50;1.00
14699;DHT22;7439;50.804;4.602;2023-05-07T15:22:40;17.50;1.00
14699;DHT22;7439;50.804;4.602;2023-05-07T15:25:08;17.40;1.00
14699;DHT22;7439;50.804;4.602;2023-05-07T15:27:35;17.30;99.90
14699;DHT22;7439;50.804;4.602;2023-05-07T15:30:03;17.30;1.00
14699;DHT22;7439;50.804;4.602;2023-05-07T15:32:30;17.40;1.00
14699;DHT22;7439;50.804;4.602;2023-05-07T15:34:57;17.40;99.90
14699;DHT22;7439;50.804;4.602;2023-05-07T15:37:25;17.40;99.90
14699;DHT22;7439;50.804;4.602;2023-05-07T15:39:54;17.40;99.90
14699;DHT22;7439;50.804;4.602;2023-05-07T15:42:21;17.50;99.90
14699;DHT22;7439;50.804;4.602;2023-05-07T15:44:48;17.60;99.90
14699;DHT22;7439;50.804;4.602;2023-05-07T15:47:16;17.60;99.90
14699;DHT22;7439;50.804;4.602;2023-05-07T15:49:43;17.50;99.90
14699;DHT22;7439;50.804;4.602;2023-05-07T15:52:10;17.50;99.90
14699;DHT22;7439;50.804;4.602;2023-05-07T15:54:39;17.50;99.90
14699;DHT22;7439;50.804;4.602;2023-05-07T15:57:08;17.40;99.90
14699;DHT22;7439;50.804;4.602;2023-05-07T15:59:36;17.50;99.90
14699;DHT22;7439;50.804;4.602;2023-05-07T16:02:03;17.50;99.90
14699;DHT22;7439;50.804;4.602;2023-05-07T16:04:32;17.40;99.90
14699;DHT22;7439;50.804;4.602;2023-05-07T16:06:59;17.50;99.90
14699;DHT22;7439;50.804;4.602;2023-05-07T16:09:28;17.50;99.90
14699;DHT22;7439;50.804;4.602;2023-05-07T16:11:56;17.60;99.90
14699;DHT22;7439;50.804;4.602;2023-05-07T16:14:24;17.70;99.90
14699;DHT22;7439;50.804;4.602;2023-05-07T16:16:51;17.70;99.90
14699;DHT22;7439;50.804;4.602;2023-05-07T16:19:19;17.70;90.90